Time;durP1;ratioP1;P1;durP2;ratioP2;P2;SDS_P1;SDS_P2;PMS_P1;PMS_P2;Temp;Humidity;BMP_temperature;BMP_pressure;BME280_temperature;BME280_humidity;BME280_pressure;Samples;Min_cycle;Max_cycle;Signal;HPM_P1;HPM_P2
2021/07/28 00:00:55;;;;;;;4.13;2.85;;;;;6.30;101146.00;;;;5112178;28;20039;-78
2021/07/28 00:03:21;;;;;;;5.35;2.90;;;;;6.30;101164.00;;;;5094069;28;20028;-77
2021/07/28 00:05:48;;;;;;;12.82;3.10;;;;;6.10;101134.00;;;;5111630;28;20110;-76
2021/07/28 00:08:15;;;;;;;4.15;2.05;;;;;6.30;101138.00;;;;5112283;28;20036;-77
2021/07/28 00:10:42;;;;;;;9.15;5.05;;;;;6.30;101148.00;;;;5094565;28;20031;-77
2021/07/28 00:13:09;;;;;;;5.75;2.28;;;;;6.30;101149.00;;;;5112879;28;20027;-78
2021/07/28 00:15:36;;;;;;;7.20;2.47;;;;;6.20;101158.00;;;;5094730;28;20032;-76
2021/07/28 00:18:11;;;;;;;4.47;2.20;;;;;6.30;101182.00;;;;5111974;28;20023;-76
2021/07/28 00:23:14;;;;;;;5.97;2.00;;;;;6.30;101178.00;;;;5113422;28;20035;-77
2021/07/28 00:25:42;;;;;;;4.65;2.13;;;;;6.20;101165.00;;;;5114344;28;20023;-78
2021/07/28 00:28:10;;;;;;;5.53;2.70;;;;;6.00;101186.00;;;;5111385;28;20086;-77
2021/07/28 00:30:37;;;;;;;4.25;2.08;;;;;5.90;101172.00;;;;5113537;28;20027;-77
2021/07/28 00:33:05;;;;;;;9.27;2.50;;;;;5.80;101188.00;;;;5111143;28;20514;-79
2021/07/28 00:35:32;;;;;;;8.30;2.60;;;;;5.60;101160.00;;;;5091665;28;20077;-78
2021/07/28 00:38:16;;;;;;;7.05;3.58;;;;;5.60;101159.00;;;;5108582;28;20039;-78
2021/07/28 00:40:46;;;;;;;4.53;2.60;;;;;5.50;101179.00;;;;5090996;28;20398;-78
2021/07/28 00:43:16;;;;;;;8.00;3.63;;;;;5.30;101185.00;;;;5107108;28;20031;-78
2021/07/28 00:45:44;;;;;;;8.48;3.45;;;;;5.10;101185.00;;;;5107769;28;20386;-78
2021/07/28 00:48:13;;;;;;;4.55;3.05;;;;;5.00;101168.00;;;;5089849;28;20368;-79
2021/07/28 00:50:40;;;;;;;6.70;3.05;;;;;5.00;101164.00;;;;5107642;28;20063;-79
2021/07/28 00:53:16;;;;;;;10.52;3.08;;;;;4.90;101201.00;;;;5108411;28;20148;-78
2021/07/28 00:55:43;;;;;;;5.97;4.10;;;;;4.90;101196.00;;;;5107508;28;20016;-80
2021/07/28 00:58:10;;;;;;;9.23;4.90;;;;;4.90;101180.00;;;;5090227;28;20591;-78
2021/07/28 01:00:38;;;;;;;9.00;5.00;;;;;4.80;101198.00;;;;5088795;28;20398;-79
2021/07/28 01:03:05;;;;;;;9.60;5.43;;;;;4.80;101202.00;;;;5090490;28;20573;-78
2021/07/28 01:05:32;;;;;;;10.05;6.25;;;;;4.80;101184.00;;;;5109274;28;20516;-79
2021/07/28 01:08:00;;;;;;;7.00;4.13;;;;;4.70;101202.00;;;;5110456;28;20105;-75
2021/07/28 01:10:27;;;;;;;7.47;3.40;;;;;4.70;101174.00;;;;5109247;28;20027;-77
2021/07/28 01:12:55;;;;;;;18.92;3.65;;;;;4.90;101178.00;;;;5108624;28;20040;-78
2021/07/28 01:18:04;;;;;;;7.57;3.92;;;;;4.80;101178.00;;;;5108061;28;20035;-78
2021/07/28 01:20:39;;;;;;;9.27;3.70;;;;;4.60;101168.00;;;;5108239;28;20023;-78
2021/07/28 01:23:12;;;;;;;6.32;4.45;;;;;4.50;101182.00;;;;5108773;28;20035;-77
2021/07/28 01:25:40;;;;;;;6.18;3.97;;;;;4.40;101186.00;;;;5091051;28;20031;-76
2021/07/28 01:28:07;;;;;;;7.68;3.88;;;;;4.30;101190.00;;;;5089703;28;20482;-78
2021/07/28 01:30:34;;;;;;;3.78;3.20;;;;;4.20;101162.00;;;;5107077;28;20031;-76
2021/07/28 01:33:03;;;;;;;10.85;3.65;;;;;4.20;101178.00;;;;5089346;28;20066;-78
2021/07/28 01:35:32;;;;;;;5.70;3.25;;;;;4.30;101154.00;;;;5107514;28;20076;-76
2021/07/28 01:38:02;;;;;;;7.78;3.63;;;;;4.40;101175.00;;;;5108764;28;20089;-78
2021/07/28 01:40:29;;;;;;;6.07;3.42;;;;;4.30;101174.00;;;;5090020;28;20031;-77
2021/07/28 01:42:55;;;;;;;4.60;3.33;;;;;4.50;101186.00;;;;5109990;28;20059;-78
2021/07/28 01:45:22;;;;;;;6.13;3.10;;;;;4.40;101178.00;;;;5090728;28;20032;-75
2021/07/28 01:47:49;;;;;;;5.75;3.20;;;;;4.30;101168.00;;;;5107663;28;20057;-78
2021/07/28 01:50:16;;;;;;;6.15;3.72;;;;;4.20;101193.00;;;;5089597;28;20091;-77
2021/07/28 01:52:43;;;;;;;8.90;3.88;;;;;4.10;101173.00;;;;5091430;28;20023;-78
2021/07/28 01:55:10;;;;;;;4.97;3.45;;;;;4.10;101170.00;;;;5090099;28;20066;-76
2021/07/28 01:57:37;;;;;;;6.03;3.70;;;;;4.20;101172.00;;;;5108108;28;20027;-79
2021/07/28 02:00:04;;;;;;;8.00;3.20;;;;;4.10;101183.00;;;;5092382;28;20032;-78
2021/07/28 02:02:35;;;;;;;7.22;3.85;;;;;4.10;101181.00;;;;5091766;28;20099;-78
2021/07/28 02:05:05;;;;;;;4.63;3.20;;;;;4.10;101179.00;;;;5109696;28;20024;-77
2021/07/28 02:07:32;;;;;;;7.15;3.08;;;;;4.10;101178.00;;;;5113179;28;20070;-78
2021/07/28 02:09:58;;;;;;;3.92;2.75;;;;;4.20;101156.00;;;;5114290;28;20501;-78
2021/07/28 02:12:25;;;;;;;13.10;4.80;;;;;4.40;101164.00;;;;5112559;28;20110;-78
2021/07/28 02:14:52;;;;;;;7.68;4.80;;;;;4.50;101180.00;;;;5112197;28;20028;-76
2021/07/28 02:17:18;;;;;;;5.22;3.72;;;;;4.50;101155.00;;;;5093569;28;20032;-77
2021/07/28 02:19:45;;;;;;;6.50;4.07;;;;;4.40;101189.00;;;;5094395;28;20035;-78
2021/07/28 02:22:12;;;;;;;3.60;2.63;;;;;4.40;101164.00;;;;5112219;28;20031;-77
2021/07/28 02:24:40;;;;;;;4.43;3.00;;;;;4.30;101191.00;;;;5111160;28;20035;-78
2021/07/28 02:27:07;;;;;;;5.45;3.10;;;;;4.20;101175.00;;;;5112052;28;20038;-78
2021/07/28 02:29:35;;;;;;;4.10;2.45;;;;;4.00;101155.00;;;;5112764;28;20577;-77
2021/07/28 02:32:03;;;;;;;7.18;2.03;;;;;3.90;101167.00;;;;5112543;28;20106;-76
2021/07/28 02:34:31;;;;;;;5.20;2.65;;;;;3.90;101172.00;;;;5094521;28;20459;-78
2021/07/28 02:36:58;;;;;;;6.35;2.60;;;;;3.90;101187.00;;;;5093511;28;20024;-78
2021/07/28 02:39:25;;;;;;;4.97;2.78;;;;;3.90;101188.00;;;;5112931;28;20024;-78
2021/07/28 02:41:52;;;;;;;4.93;2.67;;;;;3.90;101159.00;;;;5112814;28;20031;-77
2021/07/28 02:44:18;;;;;;;6.25;3.17;;;;;3.90;101165.00;;;;5113363;28;20035;-79
2021/07/28 02:46:45;;;;;;;4.85;2.90;;;;;3.90;101178.00;;;;5094285;28;20432;-79
2021/07/28 02:49:11;;;;;;;5.50;3.50;;;;;4.00;101167.00;;;;5111021;28;20116;-79
2021/07/28 02:51:38;;;;;;;4.15;2.90;;;;;4.00;101164.00;;;;5111792;28;20055;-77
2021/07/28 02:54:04;;;;;;;4.70;2.60;;;;;4.10;101155.00;;;;5115441;28;20099;-77
2021/07/28 02:56:31;;;;;;;3.95;2.40;;;;;4.10;101158.00;;;;5093801;28;20074;-76
2021/07/28 02:58:57;;;;;;;6.30;2.50;;;;;4.10;101142.00;;;;5111936;28;20064;-76
2021/07/28 03:01:24;;;;;;;3.70;2.30;;;;;4.10;101164.00;;;;5112880;28;20649;-76
2021/07/28 03:03:51;;;;;;;4.05;2.17;;;;;3.90;101139.00;;;;5095927;28;20028;-79
2021/07/28 03:06:17;;;;;;;6.88;2.40;;;;;3.80;101161.00;;;;5095263;28;20023;-78
2021/07/28 03:08:44;;;;;;;4.90;2.70;;;;;3.90;101133.00;;;;5112362;28;20035;-80
2021/07/28 03:11:10;;;;;;;7.20;3.15;;;;;4.00;101162.00;;;;5111038;28;20039;-78
2021/07/28 03:13:37;;;;;;;11.32;2.63;;;;;4.00;101164.00;;;;5113524;28;20035;-79
2021/07/28 03:16:08;;;;;;;11.35;3.20;;;;;4.10;101160.00;;;;5115250;28;20023;-75
2021/07/28 03:18:35;;;;;;;5.40;2.67;;;;;4.30;101139.00;;;;5093733;28;20118;-75
2021/07/28 03:21:02;;;;;;;3.92;3.08;;;;;4.30;101146.00;;;;5113939;28;20062;-76
2021/07/28 03:23:28;;;;;;;9.60;3.55;;;;;4.30;101141.00;;;;5112205;28;20024;-77
2021/07/28 03:25:55;;;;;;;4.95;2.80;;;;;4.30;101161.00;;;;5114883;28;20486;-76
2021/07/28 03:28:21;;;;;;;5.28;2.97;;;;;4.20;101146.00;;;;5111886;28;20034;-76
2021/07/28 03:30:51;;;;;;;9.82;3.03;;;;;4.00;101146.00;;;;5112731;28;20035;-79
2021/07/28 03:33:18;;;;;;;4.80;2.63;;;;;3.90;101149.00;;;;5092962;28;20084;-79
2021/07/28 03:35:45;;;;;;;7.05;2.65;;;;;3.90;101136.00;;;;5111335;28;20619;-77
2021/07/28 03:38:13;;;;;;;3.05;2.20;;;;;3.90;101151.00;;;;5093704;28;20032;-79
2021/07/28 03:40:40;;;;;;;5.25;2.13;;;;;3.80;101153.00;;;;5093280;28;20032;-78
2021/07/28 03:43:07;;;;;;;6.10;2.30;;;;;3.80;101135.00;;;;5113098;28;20111;-77
2021/07/28 03:45:33;;;;;;;5.15;2.50;;;;;3.80;101145.00;;;;5111378;28;20026;-80
2021/07/28 03:48:00;;;;;;;5.53;2.50;;;;;3.70;101127.00;;;;5111383;28;20616;-78
2021/07/28 03:50:27;;;;;;;7.45;2.25;;;;;3.70;101115.00;;;;5089697;28;20110;-78
2021/07/28 03:52:57;;;;;;;3.05;2.13;;;;;3.70;101118.00;;;;5090665;28;20032;-79
2021/07/28 03:55:24;;;;;;;4.20;2.13;;;;;3.70;101127.00;;;;5089010;28;20030;-79
2021/07/28 03:57:50;;;;;;;5.82;2.08;;;;;3.80;101137.00;;;;5093013;28;20040;-77
2021/07/28 04:00:17;;;;;;;3.58;2.10;;;;;3.80;101147.00;;;;5089959;28;20059;-76
2021/07/28 04:02:44;;;;;;;3.67;1.92;;;;;3.80;101152.00;;;;5092031;28;20028;-75
2021/07/28 04:05:11;;;;;;;2.58;1.80;;;;;3.70;101124.00;;;;5092048;28;20147;-79
2021/07/28 04:07:38;;;;;;;5.45;1.88;;;;;3.70;101130.00;;;;5073529;28;20066;-77
2021/07/28 04:10:05;;;;;;;2.72;1.40;;;;;3.80;101131.00;;;;5090427;28;20024;-77
2021/07/28 04:12:31;;;;;;;2.28;1.52;;;;;3.80;101105.00;;;;5088504;28;20410;-76
2021/07/28 04:14:58;;;;;;;3.03;1.60;;;;;3.80;101129.00;;;;5088589;28;20058;-77
2021/07/28 04:17:24;;;;;;;6.03;1.83;;;;;3.80;101132.00;;;;5089520;28;20028;-79
2021/07/28 04:19:51;;;;;;;2.22;1.67;;;;;3.70;101114.00;;;;5087784;28;20028;-78
2021/07/28 04:22:21;;;;;;;2.45;2.03;;;;;3.60;101146.00;;;;5091155;28;20028;-77
2021/07/28 04:24:48;;;;;;;3.53;1.80;;;;;3.60;101129.00;;;;5088508;28;20039;-78
2021/07/28 04:27:15;;;;;;;2.55;1.90;;;;;3.50;101091.00;;;;5090200;28;20020;-78
2021/07/28 04:29:42;;;;;;;3.20;1.77;;;;;3.60;101130.00;;;;5088182;28;20130;-77
2021/07/28 04:32:08;;;;;;;5.43;2.10;;;;;3.50;101112.00;;;;5087179;28;20031;-79
2021/07/28 04:34:36;;;;;;;2.53;2.00;;;;;3.60;101134.00;;;;5088112;28;20033;-77
2021/07/28 04:37:04;;;;;;;4.00;1.70;;;;;3.60;101105.00;;;;5089054;28;20043;-77
2021/07/28 04:39:34;;;;;;;2.42;1.60;;;;;3.50;101147.00;;;;5087313;28;20441;-78
2021/07/28 04:42:01;;;;;;;3.63;1.23;;;;;3.60;101107.00;;;;5089052;28;20391;-76
2021/07/28 04:44:27;;;;;;;3.78;1.42;;;;;3.70;101108.00;;;;5087738;28;20467;-78
2021/07/28 04:46:56;;;;;;;2.65;1.67;;;;;3.60;101129.00;;;;5087918;28;20032;-78
2021/07/28 04:49:22;;;;;;;2.60;1.52;;;;;3.50;101132.00;;;;5089797;28;20019;-78
2021/07/28 04:51:49;;;;;;;3.50;1.55;;;;;3.50;101115.00;;;;5107314;28;20077;-76
2021/07/28 04:54:15;;;;;;;4.32;1.55;;;;;3.50;101106.00;;;;5111683;28;20039;-79
2021/07/28 04:56:42;;;;;;;3.15;1.40;;;;;3.50;101099.00;;;;5111969;28;20023;-77
2021/07/28 04:59:08;;;;;;;1.83;1.42;;;;;3.70;101107.00;;;;5091204;28;20119;-77
2021/07/28 05:01:35;;;;;;;2.33;1.40;;;;;3.70;101105.00;;;;5108730;28;20546;-76
2021/07/28 05:04:01;;;;;;;1.90;1.30;;;;;3.50;101112.00;;;;5090094;28;20063;-77
2021/07/28 05:06:28;;;;;;;6.30;1.60;;;;;3.50;101125.00;;;;5108474;28;20091;-79
2021/07/28 05:08:54;;;;;;;4.47;1.88;;;;;3.50;101105.00;;;;5090561;28;20031;-77
2021/07/28 05:11:21;;;;;;;1.52;1.27;;;;;3.50;101084.00;;;;5108466;28;20448;-79
2021/07/28 05:13:48;;;;;;;2.05;1.42;;;;;3.50;101123.00;;;;5090418;28;20062;-77
2021/07/28 05:16:14;;;;;;;2.28;1.20;;;;;3.60;101108.00;;;;5089577;28;20039;-77
2021/07/28 05:18:41;;;;;;;6.07;1.40;;;;;3.60;101116.00;;;;5108973;28;20032;-77
2021/07/28 05:21:07;;;;;;;2.42;1.40;;;;;3.70;101128.00;;;;5111350;28;20118;-78
2021/07/28 05:23:34;;;;;;;2.88;1.52;;;;;3.70;101105.00;;;;5109555;28;20027;-77
2021/07/28 05:26:01;;;;;;;3.72;1.27;;;;;3.60;101086.00;;;;5090356;28;20031;-77
2021/07/28 05:28:27;;;;;;;7.80;1.30;;;;;3.50;101113.00;;;;5108507;28;20027;-78
2021/07/28 05:30:54;;;;;;;2.75;1.55;;;;;3.60;101111.00;;;;5108667;28;20035;-77
2021/07/28 05:33:20;;;;;;;7.20;1.70;;;;;3.50;101085.00;;;;5089618;28;20499;-78
2021/07/28 05:35:50;;;;;;;3.08;1.48;;;;;3.40;101107.00;;;;5107756;28;20054;-77
2021/07/28 05:38:16;;;;;;;3.53;1.27;;;;;3.30;101118.00;;;;5089511;28;20061;-79
2021/07/28 05:40:43;;;;;;;4.00;1.70;;;;;3.20;101107.00;;;;5089233;28;20035;-77
2021/07/28 05:43:09;;;;;;;3.00;1.33;;;;;3.10;101116.00;;;;5108008;28;20051;-77
2021/07/28 05:45:36;;;;;;;2.75;1.25;;;;;2.90;101109.00;;;;5089978;28;20384;-79
2021/07/28 05:48:02;;;;;;;3.35;1.55;;;;;2.80;101124.00;;;;5108284;28;20034;-78
2021/07/28 05:50:29;;;;;;;2.03;1.38;;;;;2.70;101113.00;;;;5107804;28;20043;-78
2021/07/28 05:52:58;;;;;;;2.33;1.15;;;;;2.60;101110.00;;;;5089831;28;20558;-78
2021/07/28 05:55:24;;;;;;;3.13;1.70;;;;;2.70;101113.00;;;;5089673;28;20040;-78
2021/07/28 05:57:53;;;;;;;7.82;1.58;;;;;2.90;101089.00;;;;5108994;28;20032;-76
2021/07/28 06:00:20;;;;;;;10.52;1.73;;;;;2.80;101081.00;;;;5108911;28;20497;-78
2021/07/28 06:02:46;;;;;;;2.60;1.55;;;;;2.80;101105.00;;;;5107892;28;20028;-76
2021/07/28 06:05:13;;;;;;;5.03;1.90;;;;;2.80;101109.00;;;;5088950;28;20027;-78
2021/07/28 06:07:40;;;;;;;2.05;1.30;;;;;2.70;101105.00;;;;5107674;28;20023;-77
2021/07/28 06:10:07;;;;;;;2.30;1.45;;;;;2.90;101088.00;;;;5107463;28;20032;-76
2021/07/28 06:12:33;;;;;;;3.28;1.63;;;;;2.90;101110.00;;;;5072515;28;20094;-78
2021/07/28 06:15:00;;;;;;;2.65;1.58;;;;;2.90;101099.00;;;;5089412;28;20122;-78
2021/07/28 06:17:26;;;;;;;3.40;1.73;;;;;2.90;101075.00;;;;5108684;28;20034;-76
2021/07/28 06:19:53;;;;;;;2.45;1.40;;;;;3.00;101089.00;;;;5107346;28;20558;-78
2021/07/28 06:22:19;;;;;;;4.25;1.48;;;;;2.90;101088.00;;;;5091294;28;20032;-78
2021/07/28 06:24:46;;;;;;;3.70;1.50;;;;;2.80;101079.00;;;;5108944;28;20042;-77
2021/07/28 06:27:12;;;;;;;3.15;1.42;;;;;2.80;101095.00;;;;5090309;28;20099;-79
2021/07/28 06:29:39;;;;;;;1.80;1.17;;;;;2.80;101089.00;;;;5090702;28;20409;-77
2021/07/28 06:32:06;;;;;;;2.78;1.13;;;;;2.80;101077.00;;;;5108097;28;20028;-78
2021/07/28 06:34:33;;;;;;;5.72;1.58;;;;;2.90;101077.00;;;;5106867;28;20024;-77
2021/07/28 06:36:59;;;;;;;3.58;1.42;;;;;2.90;101090.00;;;;5089557;28;20040;-78
2021/07/28 06:39:26;;;;;;;5.38;1.80;;;;;2.90;101076.00;;;;5089729;28;20492;-78
2021/07/28 06:41:53;;;;;;;4.00;1.73;;;;;2.80;101096.00;;;;5090004;28;20084;-77
2021/07/28 06:44:19;;;;;;;3.25;1.38;;;;;2.80;101070.00;;;;5089695;28;20077;-78
2021/07/28 06:46:46;;;;;;;2.40;1.50;;;;;2.80;101093.00;;;;5109181;28;20039;-78
2021/07/28 06:49:12;;;;;;;3.65;1.27;;;;;2.80;101096.00;;;;5090796;28;20080;-78
2021/07/28 06:51:39;;;;;;;3.65;1.48;;;;;2.70;101074.00;;;;5108066;28;20107;-76
2021/07/28 06:54:05;;;;;;;3.45;1.48;;;;;2.80;101085.00;;;;5092584;28;20051;-78
2021/07/28 06:56:32;;;;;;;3.25;1.60;;;;;2.80;101085.00;;;;5093994;28;20024;-77
2021/07/28 06:58:58;;;;;;;2.40;1.40;;;;;2.80;101056.00;;;;5093713;28;20054;-77
2021/07/28 07:01:25;;;;;;;2.22;1.50;;;;;2.80;101070.00;;;;5112040;28;20070;-77
2021/07/28 07:03:51;;;;;;;3.53;1.33;;;;;2.80;101093.00;;;;5111950;28;20031;-76
2021/07/28 07:06:18;;;;;;;2.25;1.30;;;;;2.90;101064.00;;;;5093755;28;20402;-77
2021/07/28 07:08:44;;;;;;;4.10;1.40;;;;;2.80;101052.00;;;;5094793;28;20032;-77
2021/07/28 07:11:11;;;;;;;2.58;1.20;;;;;2.90;101037.00;;;;5093482;28;20027;-78
2021/07/28 07:13:37;;;;;;;5.68;1.40;;;;;3.00;101086.00;;;;5093472;28;20081;-76
2021/07/28 07:16:04;;;;;;;11.95;1.40;;;;;3.00;101061.00;;;;5111681;28;20016;-78
2021/07/28 07:18:30;;;;;;;2.05;1.20;;;;;2.80;101066.00;;;;5112322;28;20507;-77
2021/07/28 07:20:57;;;;;;;5.18;1.35;;;;;2.80;101062.00;;;;5114040;28;20129;-78
2021/07/28 07:23:23;;;;;;;2.63;1.40;;;;;2.80;101061.00;;;;5114468;28;20035;-77
2021/07/28 07:25:50;;;;;;;2.55;1.30;;;;;2.90;101067.00;;;;5096016;28;20043;-77
2021/07/28 07:28:16;;;;;;;2.00;1.02;;;;;3.00;101054.00;;;;5095761;28;20104;-77
2021/07/28 07:30:43;;;;;;;1.83;1.30;;;;;2.90;101049.00;;;;5112725;28;20049;-78
2021/07/28 07:35:54;;;;;;;2.28;1.30;;;;;2.90;101060.00;;;;5116563;28;20117;-78
2021/07/28 07:38:21;;;;;;;5.65;1.55;;;;;3.00;101039.00;;;;5113181;28;20358;-77
2021/07/28 07:40:47;;;;;;;5.45;1.23;;;;;3.10;101016.00;;;;5093547;28;20031;-77
2021/07/28 07:43:14;;;;;;;3.50;1.42;;;;;3.10;101038.00;;;;5093216;28;20028;-77
2021/07/28 07:45:40;;;;;;;2.38;1.30;;;;;3.00;101035.00;;;;5093224;28;20034;-77
2021/07/28 07:48:07;;;;;;;3.88;1.45;;;;;3.00;101001.00;;;;5110973;28;20027;-78
2021/07/28 07:50:36;;;;;;;3.90;1.65;;;;;2.90;101033.00;;;;5092881;28;20101;-78
2021/07/28 07:53:04;;;;;;;5.38;1.63;;;;;2.80;101032.00;;;;5093133;28;20054;-78
2021/07/28 07:55:31;;;;;;;4.03;2.17;;;;;2.90;101034.00;;;;5111124;28;20207;-78
2021/07/28 07:57:58;;;;;;;3.20;1.80;;;;;2.80;101017.00;;;;5112604;28;20034;-78
2021/07/28 08:00:25;;;;;;;5.00;1.88;;;;;2.70;101025.00;;;;5095009;28;20031;-77
2021/07/28 08:02:51;;;;;;;3.05;1.65;;;;;2.70;101028.00;;;;5092664;28;20024;-79
2021/07/28 08:05:18;;;;;;;3.03;1.58;;;;;2.70;101033.00;;;;5112306;28;20487;-78
2021/07/28 08:07:44;;;;;;;2.15;1.42;;;;;2.70;101007.00;;;;5111746;28;20035;-78
2021/07/28 08:10:11;;;;;;;2.88;1.70;;;;;2.70;101020.00;;;;5111023;28;20494;-78
2021/07/28 08:12:38;;;;;;;2.83;1.67;;;;;2.70;101029.00;;;;5092745;28;20472;-78
2021/07/28 08:15:05;;;;;;;2.72;1.20;;;;;2.70;101019.00;;;;5110757;28;20049;-78
2021/07/28 08:17:32;;;;;;;3.42;1.40;;;;;2.70;101017.00;;;;5092031;28;20043;-77
2021/07/28 08:20:00;;;;;;;4.00;1.45;;;;;2.60;101047.00;;;;5092172;28;20055;-76
2021/07/28 08:22:28;;;;;;;2.95;1.42;;;;;2.60;101029.00;;;;5097413;28;20057;-79
2021/07/28 08:24:55;;;;;;;2.38;1.25;;;;;2.70;101045.00;;;;5094625;28;20023;-77
2021/07/28 08:27:23;;;;;;;2.88;1.40;;;;;2.80;100996.00;;;;5093478;28;20031;-76
2021/07/28 08:29:50;;;;;;;2.67;1.50;;;;;2.80;101020.00;;;;5111866;28;20030;-79
2021/07/28 08:32:16;;;;;;;2.25;1.15;;;;;2.80;101021.00;;;;5091848;28;20040;-76
2021/07/28 08:34:43;;;;;;;6.20;1.10;;;;;2.80;101015.00;;;;5093180;28;20494;-78
2021/07/28 08:37:09;;;;;;;2.72;1.30;;;;;2.70;101029.00;;;;5093420;28;20103;-78
2021/07/28 08:39:36;;;;;;;8.00;3.40;;;;;2.70;101020.00;;;;5114198;28;20066;-77
2021/07/28 08:42:06;;;;;;;4.50;1.55;;;;;2.70;101011.00;;;;5113762;28;20059;-78
2021/07/28 08:44:38;;;;;;;4.93;2.10;;;;;2.70;101033.00;;;;5113457;28;20110;-77
2021/07/28 08:47:06;;;;;;;3.90;1.30;;;;;2.70;101033.00;;;;5095343;28;20850;-78
2021/07/28 08:49:33;;;;;;;2.55;1.33;;;;;2.70;101021.00;;;;5113498;28;20070;-76
2021/07/28 08:52:00;;;;;;;5.55;1.60;;;;;2.70;101024.00;;;;5114439;28;20605;-77
2021/07/28 08:54:26;;;;;;;4.35;1.38;;;;;2.70;101031.00;;;;5113602;28;20023;-75
2021/07/28 08:56:54;;;;;;;4.85;1.50;;;;;2.70;101033.00;;;;5091144;28;20028;-78
2021/07/28 08:59:38;;;;;;;2.97;1.50;;;;;2.80;101017.00;;;;5111263;28;20020;-78
2021/07/28 09:02:05;;;;;;;3.13;1.50;;;;;2.70;101023.00;;;;5091543;28;20035;-77
2021/07/28 09:04:32;;;;;;;3.08;1.20;;;;;2.90;101040.00;;;;5094585;28;20039;-76
2021/07/28 09:06:58;;;;;;;2.47;1.08;;;;;3.10;101035.00;;;;5112996;28;20032;-75
2021/07/28 09:09:25;;;;;;;7.55;1.70;;;;;3.20;101028.00;;;;5113013;28;20032;-76
2021/07/28 09:12:00;;;;;;;3.58;1.10;;;;;3.20;101051.00;;;;5114703;28;20027;-76
2021/07/28 09:14:36;;;;;;;6.10;1.85;;;;;3.30;101029.00;;;;5097696;28;20614;-76
2021/07/28 09:17:18;;;;;;;2.42;1.05;;;;;3.50;101029.00;;;;5112906;28;20024;-77
2021/07/28 09:19:47;;;;;;;3.70;1.20;;;;;3.50;101025.00;;;;5113732;28;20124;-76
2021/07/28 09:22:18;;;;;;;4.13;1.33;;;;;3.60;101046.00;;;;5113300;28;20043;-76
2021/07/28 09:24:47;;;;;;;4.30;1.50;;;;;3.50;101035.00;;;;5116785;28;20055;-76
2021/07/28 09:27:49;;;;;;;2.38;1.20;;;;;3.40;101073.00;;;;5096875;28;20031;-76
2021/07/28 09:30:34;;;;;;;6.65;1.48;;;;;3.40;101037.00;;;;5094675;28;20501;-76
2021/07/28 09:33:10;;;;;;;3.63;1.67;;;;;3.40;101047.00;;;;5114995;28;20393;-77
2021/07/28 09:35:55;;;;;;;3.28;1.42;;;;;3.50;101056.00;;;;5111395;28;20039;-77
2021/07/28 09:38:31;;;;;;;2.85;1.60;;;;;3.40;101041.00;;;;5114931;28;20382;-77
2021/07/28 09:41:18;;;;;;;3.58;1.90;;;;;3.20;101067.00;;;;5112969;28;20032;-76
2021/07/28 09:43:52;;;;;;;2.28;1.60;;;;;3.20;101061.00;;;;5097862;28;20118;-77
2021/07/28 09:46:22;;;;;;;6.50;1.63;;;;;3.10;101036.00;;;;5094703;28;20073;-75
2021/07/28 09:48:49;;;;;;;6.03;2.15;;;;;3.10;101042.00;;;;5095028;28;20023;-78
2021/07/28 09:51:33;;;;;;;6.63;1.50;;;;;3.10;101070.00;;;;5113449;28;20054;-77
2021/07/28 09:54:11;;;;;;;3.47;1.88;;;;;3.10;101069.00;;;;5109350;28;20024;-78
2021/07/28 09:56:51;;;;;;;4.50;1.90;;;;;2.90;101069.00;;;;5113061;28;20032;-78
2021/07/28 09:59:18;;;;;;;16.98;2.50;;;;;2.90;101035.00;;;;5093465;28;20142;-77
2021/07/28 10:02:48;;;;;;;;;;;;;;;;;;;;;
2021/07/28 10:05:21;;;;;;;4.25;2.20;;;;;2.80;101007.00;;;;5099991;28;20080;-77
2021/07/28 10:07:56;;;;;;;6.10;2.15;;;;;2.70;101057.00;;;;5095522;28;20696;-76
2021/07/28 10:10:23;;;;;;;7.75;2.05;;;;;2.80;101051.00;;;;5092450;28;20034;-76
2021/07/28 10:12:50;;;;;;;5.95;2.13;;;;;3.10;101068.00;;;;5112031;28;20032;-78
2021/07/28 10:15:20;;;;;;;7.07;1.70;;;;;3.10;101075.00;;;;5094704;28;20028;-77
2021/07/28 10:17:47;;;;;;;5.05;1.98;;;;;3.20;101066.00;;;;5112809;28;20020;-76
2021/07/28 10:20:14;;;;;;;5.45;1.70;;;;;3.40;101046.00;;;;5111268;28;20023;-77
2021/07/28 10:22:43;;;;;;;4.25;1.42;;;;;3.30;101062.00;;;;5110438;28;20775;-77
2021/07/28 10:25:21;;;;;;;5.20;2.42;;;;;3.20;101091.00;;;;5091603;28;20047;-77
2021/07/28 10:27:50;;;;;;;8.35;1.70;;;;;3.10;101077.00;;;;5091506;28;20028;-76
2021/07/28 10:30:20;;;;;;;4.43;1.92;;;;;3.00;101063.00;;;;5113900;28;20020;-78
2021/07/28 10:32:47;;;;;;;11.30;2.08;;;;;3.30;101071.00;;;;5114392;28;20035;-76
2021/07/28 10:35:17;;;;;;;12.15;3.75;;;;;3.60;101083.00;;;;5096249;28;20028;-77
2021/07/28 10:37:44;;;;;;;5.82;2.20;;;;;3.60;101077.00;;;;5114468;28;20046;-78
2021/07/28 10:40:49;;;;;;;10.43;2.20;;;;;3.70;101092.00;;;;5097839;28;20039;-77
2021/07/28 10:43:15;;;;;;;3.65;1.52;;;;;4.00;101089.00;;;;5113254;28;20067;-78
2021/07/28 10:46:00;;;;;;;12.20;1.85;;;;;4.20;101077.00;;;;5115398;28;20058;-76
2021/07/28 10:48:42;;;;;;;5.32;2.22;;;;;6.20;100954.00;;;;5095891;28;20432;-77
2021/07/28 10:51:08;;;;;;;6.43;2.33;;;;;8.70;100865.00;;;;5116192;28;20062;-75
2021/07/28 10:53:48;;;;;;;7.15;1.52;;;;;9.90;100836.00;;;;5095745;28;20059;-76
2021/07/28 10:56:15;;;;;;;6.57;2.10;;;;;9.70;100880.00;;;;5096364;28;20032;-76
2021/07/28 10:58:41;;;;;;;2.55;1.30;;;;;10.70;100844.00;;;;5097156;28;20435;-77
2021/07/28 11:01:08;;;;;;;3.15;1.30;;;;;10.70;100899.00;;;;5113665;28;20028;-77
2021/07/28 11:03:36;;;;;;;6.93;4.13;;;;;10.60;100859.00;;;;5112867;28;20088;-77
2021/07/28 11:06:14;;;;;;;4.57;1.90;;;;;11.70;100893.00;;;;5114436;28;20390;-77
2021/07/28 11:08:41;;;;;;;8.63;1.60;;;;;11.00;100904.00;;;;5114332;28;20031;-76
2021/07/28 11:11:08;;;;;;;7.57;1.58;;;;;11.50;100923.00;;;;5113955;28;20027;-77
2021/07/28 11:13:34;;;;;;;5.43;2.03;;;;;11.60;100929.00;;;;5114505;28;20102;-74
2021/07/28 11:16:09;;;;;;;10.85;2.42;;;;;12.40;100898.00;;;;5113208;28;20498;-77
2021/07/28 11:18:43;;;;;;;2.88;1.58;;;;;12.10;100911.00;;;;5114077;28;20058;-77
2021/07/28 11:21:20;;;;;;;25.77;3.72;;;;;12.80;100863.00;;;;5112383;28;20445;-75
2021/07/28 11:23:55;;;;;;;5.95;2.03;;;;;13.50;100835.00;;;;5096275;28;20024;-77
2021/07/28 11:26:30;;;;;;;3.65;1.50;;;;;13.50;100853.00;;;;5113907;28;20023;-77
2021/07/28 11:28:59;;;;;;;7.13;2.28;;;;;14.30;100837.00;;;;5114759;28;20051;-76
2021/07/28 11:31:28;;;;;;;6.40;1.80;;;;;15.00;100849.00;;;;5111829;28;20027;-76
2021/07/28 11:34:04;;;;;;;10.90;1.95;;;;;15.40;100868.00;;;;5113231;28;20406;-78
2021/07/28 11:36:32;;;;;;;9.85;1.60;;;;;15.50;100857.00;;;;5112408;28;20059;-77
2021/07/28 11:39:05;;;;;;;6.60;1.50;;;;;15.60;100896.00;;;;5110883;28;20047;-76
2021/07/28 11:41:32;;;;;;;3.22;1.70;;;;;15.20;100893.00;;;;5113745;28;20077;-76
2021/07/28 11:43:59;;;;;;;6.45;1.73;;;;;15.40;100844.00;;;;5096272;28;20057;-75
2021/07/28 11:46:25;;;;;;;11.35;1.58;;;;;14.80;100848.00;;;;5113779;28;20039;-76
2021/07/28 11:48:59;;;;;;;4.90;1.55;;;;;15.20;100825.00;;;;5112987;28;20108;-76
2021/07/28 11:51:38;;;;;;;4.07;1.83;;;;;16.00;100859.00;;;;5112335;28;20070;-76
2021/07/28 11:54:08;;;;;;;16.02;2.30;;;;;16.50;100871.00;;;;5093506;28;20031;-77
2021/07/28 11:56:35;;;;;;;6.73;1.73;;;;;15.60;100867.00;;;;5094147;28;20058;-76
2021/07/28 11:59:02;;;;;;;3.50;1.60;;;;;15.60;100857.00;;;;5111519;28;20296;-74
2021/07/28 12:01:33;;;;;;;11.13;2.00;;;;;15.90;100852.00;;;;5110359;28;20036;-78
2021/07/28 12:04:09;;;;;;;14.13;3.05;;;;;16.50;100854.00;;;;5116372;28;20069;-79
2021/07/28 12:06:39;;;;;;;5.30;1.45;;;;;16.80;100879.00;;;;5116121;28;20058;-75
2021/07/28 12:09:21;;;;;;;2.22;1.70;;;;;16.90;100852.00;;;;5112782;28;20032;-74
2021/07/28 12:11:50;;;;;;;6.75;2.20;;;;;17.10;100880.00;;;;5116260;28;20037;-75
2021/07/28 12:14:27;;;;;;;4.63;1.83;;;;;17.40;100890.00;;;;5095781;28;20100;-74
2021/07/28 12:16:55;;;;;;;6.68;1.80;;;;;16.70;100910.00;;;;5111681;28;20051;-78
2021/07/28 12:19:27;;;;;;;7.32;2.42;;;;;17.10;100906.00;;;;5113630;28;20504;-77
2021/07/28 12:21:53;;;;;;;;;;;;;18.70;100931.00;;;;5094623;28;20024;-74
2021/07/28 12:24:33;;;;;;;6.82;2.40;;;;;17.60;100943.00;;;;5111321;28;19919;-77
2021/07/28 12:27:24;;;;;;;7.78;2.50;;;;;18.30;100901.00;;;;5115065;28;20020;-77
2021/07/28 12:29:59;;;;;;;9.45;2.67;;;;;18.20;100903.00;;;;5112096;28;20575;-76
2021/07/28 12:32:44;;;;;;;10.38;2.30;;;;;18.20;100896.00;;;;5111812;28;20092;-76